Date,TemperatureHighF,TemperatureAvgF,TemperatureLowF,DewpointHighF,DewpointAvgF,DewpointLowF,HumidityHigh,HumidityAvg,HumidityLow,PressureMaxIn,PressureMinIn,WindSpeedMaxMPH,WindSpeedAvgMPH,GustSpeedMaxMPH,PrecipitationSumIn
2013-4-1,51.7,46.0,40.3,38.1,33.5,28.0,83,63,42,29.88,29.68,11,1,19,0.20
2013-4-2,53.6,42.5,36.2,38.4,35.1,31.2,94,77,47,30.01,29.84,0,0,4,0.23
2013-4-3,61.5,50.0,39.9,37.6,30.2,21.0,71,49,21,30.07,29.96,5,0,9,0.00
2013-4-4,66.9,55.8,45.7,33.0,25.2,18.9,47,32,19,30.00,29.69,4,0,9,0.00
2013-4-5,60.2,50.7,39.8,39.0,30.6,19.9,94,50,22,29.95,29.61,7,1,16,0.36
2013-4-6,55.0,47.4,41.3,38.5,29.6,20.5,79,50,37,29.93,29.79,9,0,14,0.05
2013-4-7,56.2,48.1,39.3,34.3,27.5,11.8,72,48,19,29.83,29.40,3,0,9,0.00
2013-4-8,54.5,39.4,31.8,36.3,29.9,10.5,95,77,17,29.51,29.23,11,1,17,0.61
2013-4-9,35.6,27.7,22.2,30.0,19.0,13.4,95,71,42,30.20,29.52,5,0,12,0.23
2013-4-10,43.8,34.4,23.8,25.7,18.2,13.1,66,52,34,30.23,29.95,2,0,8,0.11
2013-4-11,51.9,41.8,35.3,38.5,29.8,25.8,93,64,36,29.92,29.81,1,0,10,0.11
2013-4-12,55.7,45.1,35.5,29.9,23.2,7.3,60,44,21,29.94,29.76,4,0,10,0.00
2013-4-13,59.0,46.9,37.6,38.1,21.3,8.9,80,40,21,29.74,29.33,13,1,19,0.01
2013-4-14,45.4,37.3,30.6,19.3,10.5,0.3,53,34,23,29.85,29.58,5,1,12,0.00
2013-4-15,43.2,35.9,29.4,31.8,27.4,16.2,93,73,43,29.69,29.52,3,0,10,0.25
2013-4-16,37.9,32.3,30.0,30.0,27.7,21.9,93,84,64,29.92,29.58,0,0,9,0.50
2013-4-17,36.9,31.4,25.7,22.2,15.4,8.5,78,53,34,30.21,29.90,12,2,17,0.04
2013-4-18,42.2,33.0,24.4,16.9,10.5,3.9,67,42,21,30.32,30.21,14,2,15,0.01
2013-4-19,52.5,41.5,31.6,30.3,15.7,6.2,58,35,26,30.28,29.91,7,0,12,0.00
2013-4-20,49.6,41.0,33.4,38.6,33.0,25.1,92,74,49,30.08,29.88,3,0,7,0.46
2013-4-21,59.0,47.5,37.2,30.5,25.4,20.0,63,44,24,30.10,29.80,6,1,10,0.01
2013-4-22,49.1,43.9,35.0,28.8,23.9,13.7,55,45,29,30.07,29.78,9,2,17,0.00
2013-4-23,45.7,36.4,27.3,20.6,13.0,3.9,65,41,19,30.24,30.07,5,0,10,0.00
2013-4-24,54.1,43.5,34.1,15.9,12.0,7.7,43,28,18,30.16,30.00,6,1,10,0.00
2013-4-25,59.9,47.4,36.8,26.3,15.7,-4.8,49,30,11,30.00,29.83,6,0,12,0.00
2013-4-26,64.7,52.6,42.5,21.5,11.0,-4.2,28,19,11,30.11,29.92,4,0,10,0.00
2013-4-27,67.4,56.5,46.0,27.0,19.5,15.1,33,24,16,30.15,29.88,6,0,10,0.00
2013-4-28,73.0,61.3,51.3,31.3,22.5,15.6,32,23,15,29.89,29.64,8,1,14,0.00
2013-4-29,70.6,59.8,49.5,32.6,26.1,19.5,40,28,17,29.77,29.45,4,0,12,0.00
2013-4-30,59.9,50.0,39.2,32.3,21.1,6.2,53,33,16,29.93,29.46,10,1,14,0.00